Justice — WDG2184 — position and weather

sailwx.info

Track history (hours):
 
Tides and Currents Weather Stations Pressure Air Temp Water Temp Dewpoint Dewpoint Depression Visibility Wind Speed Wind Dir Waves Ship Positions

Justice

Owner: Boston Towing & Transportation, Boston, MA. More information available from US FCC via Universal Licensing System and Coast Guard Vessel Documentation Center.

Last reported at 2016-Feb-13 10:29 UTC. Time now 2016-Feb-13 10:47 UTC.
Position N 42°23' W 071°03'.

Length 30 m; draft 5.8 m.

Type: Tug. MMSI: 367513010.

Date/timePositionNaut miles runAvg speedWind from/ knotsBaromVisibWave heightAir tempDewpointWater temp
2016-Feb-13 10:29N 42°23' W 071°03'2 2.7
2016-Feb-13 09:33N 42°21' W 071°01'0 0.5
2016-Feb-13 08:33N 42°20' W 071°00'3 3.2
2016-Feb-13 07:33N 42°24' W 071°01'2 2.1
2016-Feb-13 06:33N 42°22' W 071°03'2 1.7
2016-Feb-13 05:33N 42°21' W 071°01'1 0.7
2016-Feb-13 04:33N 42°21' W 071°02'0 0.2
2016-Feb-13 03:33N 42°21' W 071°02'2 1.8
2016-Feb-13 02:33N 42°23' W 071°03'0 0.0
2016-Feb-13 01:33N 42°23' W 071°03'0 0.0
2016-Feb-13 00:33N 42°23' W 071°03'0 0.0
2016-Feb-12 23:33N 42°23' W 071°03'0 0.0
2016-Feb-12 22:33N 42°23' W 071°03'0 0.0
2016-Feb-12 21:33N 42°23' W 071°03'0 0.4
2016-Feb-12 20:33N 42°23' W 071°03'0 0.2
2016-Feb-12 19:32N 42°23' W 071°03'1 0.5
2016-Feb-12 18:33N 42°23' W 071°03'1 1.0
2016-Feb-12 17:33N 42°23' W 071°01'2 2.2
2016-Feb-12 16:33N 42°21' W 071°02'3 2.7
2016-Feb-12 15:33N 42°20' W 070°59'5 4.6
2016-Feb-12 14:33N 42°16' W 070°56'2 1.9
2016-Feb-12 13:31N 42°14' W 070°58'6 6.1
2016-Feb-12 12:33N 42°20' W 070°57'5 4.7
2016-Feb-12 11:33N 42°22' W 071°03'1 0.8
2016-Feb-12 10:33N 42°23' W 071°03'3 2.7
2016-Feb-12 09:33N 42°21' W 071°01'1 1.3
2016-Feb-12 08:33N 42°22' W 071°02'2 1.6
2016-Feb-12 07:33N 42°23' W 071°03'0 0.3
2016-Feb-12 06:33N 42°23' W 071°03'0 0.0
2016-Feb-12 05:33N 42°23' W 071°03'0 0.0
2016-Feb-12 04:33N 42°23' W 071°03'0 0.0
2016-Feb-12 03:33N 42°23' W 071°03'0 0.0
2016-Feb-12 02:33N 42°23' W 071°03'1 0.9
2016-Feb-12 01:33N 42°23' W 071°01'1 0.9
2016-Feb-12 00:33N 42°23' W 071°03'0 0.0
2016-Feb-11 23:33N 42°23' W 071°03'0 0.0
2016-Feb-11 22:33N 42°23' W 071°03'0 0.0
2016-Feb-11 21:32N 42°23' W 071°03'1 1.2
2016-Feb-11 20:33N 42°22' W 071°02'7 7.0
2016-Feb-11 19:33N 42°17' W 070°56'3 2.6
2016-Feb-11 18:31N 42°14' W 070°58'4 3.9
2016-Feb-11 17:33N 42°18' W 070°55'3 3.4
2016-Feb-11 16:34N 42°20' W 070°58'2 2.0
2016-Feb-11 15:33N 42°19' W 070°56'5 3.6
2016-Feb-11 14:10N 42°14' W 070°58'5 8.4
2016-Feb-11 13:33N 42°19' W 070°55'4 3.8
2016-Feb-11 12:25N 42°15' W 070°59'4 4.7
2016-Feb-11 11:33N 42°19' W 070°55'7 6.6
2016-Feb-11 10:33N 42°23' W 071°02'1 0.5
2016-Feb-11 09:33N 42°23' W 071°03'0 0.2
2016-Feb-11 08:33N 42°23' W 071°03'0 0.0
2016-Feb-11 07:33N 42°23' W 071°03'2 1.6
2016-Feb-11 06:33N 42°24' W 071°01'1 0.8
2016-Feb-11 05:33N 42°23' W 071°01'1 1.5
2016-Feb-11 04:33N 42°22' W 071°03'0 0.1
2016-Feb-11 03:33N 42°22' W 071°03'1 1.4
2016-Feb-11 02:33N 42°23' W 071°04'1 1.1
2016-Feb-11 01:33N 42°23' W 071°03'0 0.0
2016-Feb-11 00:33N 42°23' W 071°03'1 0.7
2016-Feb-10 23:33N 42°22' W 071°03'1 0.6
2016-Feb-10 22:28N 42°23' W 071°03'0 0.0
2016-Feb-10 20:33N 42°23' W 071°03'6 5.8
2016-Feb-10 19:33N 42°20' W 070°56'6 1.9
2016-Feb-10 16:32N 42°14' W 070°58'5 4.6
2016-Feb-10 15:33N 42°18' W 070°56'5 4.9
2016-Feb-10 14:33N 42°21' W 071°01'6 5.6
2016-Feb-10 13:33N 42°17' W 070°56'2 2.3
2016-Feb-10 12:31N 42°15' W 070°58'5 5.1
2016-Feb-10 11:33N 42°19' W 070°56'6 5.9
2016-Feb-10 10:31N 42°23' W 071°02'1 0.8
2016-Feb-10 09:32N 42°23' W 071°01'1 1.2
2016-Feb-10 08:33N 42°23' W 071°03'0 0.0
2016-Feb-10 07:33N 42°23' W 071°03'0 0.0
2016-Feb-10 06:33N 42°23' W 071°03'1 1.0
2016-Feb-10 05:33N 42°22' W 071°03'2 1.4
2016-Feb-10 04:25N 42°21' W 071°01'2 2.9
2016-Feb-10 03:33N 42°23' W 071°03'0 0.0
2016-Feb-10 02:33N 42°23' W 071°03'0 0.0
2016-Feb-10 01:33N 42°23' W 071°03'0 0.0
2016-Feb-10 00:33N 42°23' W 071°03'0 0.0
2016-Feb-09 23:33N 42°23' W 071°03'0 0.0
2016-Feb-09 22:33N 42°23' W 071°03'0 0.0
2016-Feb-09 21:33N 42°23' W 071°03'0 0.0
2016-Feb-09 20:33N 42°23' W 071°03'1 1.1
2016-Feb-09 19:33N 42°23' W 071°04'2 2.2
2016-Feb-09 18:33N 42°21' W 071°02'3 3.3
2016-Feb-09 17:33N 42°20' W 070°58'1 1.4
2016-Feb-09 16:33N 42°20' W 070°56'6 4.1
2016-Feb-09 15:09N 42°14' W 070°58'5 8.2
2016-Feb-09 14:33N 42°19' W 070°56'7 7.2
2016-Feb-09 13:34N 42°23' W 071°04'1 0.7
2016-Feb-09 12:33N 42°23' W 071°03'1 1.3
2016-Feb-09 11:33N 42°24' W 071°01'1 1.4
2016-Feb-09 10:34N 42°23' W 071°03'0 0.0
2016-Feb-09 09:33N 42°23' W 071°03'0 0.0
2016-Feb-09 08:33N 42°23' W 071°03'0 0.0
2016-Feb-09 07:34N 42°23' W 071°03'0 0.0
2016-Feb-09 06:33N 42°23' W 071°03'0 0.0
2016-Feb-09 05:33N 42°23' W 071°03'0 0.0
2016-Feb-09 04:33N 42°23' W 071°03'0 0.0
2016-Feb-09 03:34N 42°23' W 071°03'0 0.0
2016-Feb-09 02:33N 42°23' W 071°03'0 0.0
2016-Feb-09 01:33N 42°23' W 071°03'0 0.3
2016-Feb-09 00:26N 42°23' W 071°03'0 0.0
2016-Feb-08 23:19N 42°23' W 071°03'0 0.0
2016-Feb-08 22:34N 42°23' W 071°03'0 0.3
2016-Feb-08 21:33N 42°23' W 071°03'0 0.0
2016-Feb-08 20:33N 42°23' W 071°03'0 0.0
2016-Feb-08 19:33N 42°23' W 071°03'0 0.0
2016-Feb-08 18:33N 42°23' W 071°03'0 0.0
2016-Feb-08 17:19N 42°23' W 071°03'0 0.0
2016-Feb-08 13:31N 42°23' W 071°03'0 0.0
2016-Feb-08 12:34N 42°23' W 071°03'0 0.0
2016-Feb-08 11:33N 42°23' W 071°03'0 0.0
2016-Feb-08 10:33N 42°23' W 071°03'0 0.0
2016-Feb-08 09:32N 42°23' W 071°03'1 0.9
2016-Feb-08 08:33N 42°22' W 071°03'2 1.8
2016-Feb-08 07:33N 42°21' W 071°01'2 2.3
2016-Feb-08 06:34N 42°22' W 071°03'1 1.2
2016-Feb-08 05:29N 42°23' W 071°01'2 1.9
2016-Feb-08 04:33N 42°23' W 071°04'0 0.1
2016-Feb-08 03:33N 42°23' W 071°04'0 0.1
2016-Feb-08 02:33N 42°23' W 071°03'0 0.3
2016-Feb-08 01:33N 42°23' W 071°04'1 1.0
2016-Feb-08 00:24N 42°23' W 071°03'0 0.0
2016-Feb-07 20:33N 42°23' W 071°03'0 0.0
2016-Feb-07 19:32N 42°23' W 071°03'0 0.0
2016-Feb-07 18:27N 42°23' W 071°03'2 1.8
2016-Feb-07 17:33N 42°24' W 071°01'2 1.6
2016-Feb-07 16:34N 42°23' W 071°03'0 0.0
2016-Feb-07 15:33N 42°23' W 071°03'0 0.0
2016-Feb-07 14:33N 42°23' W 071°03'0 0.0
2016-Feb-07 13:31N 42°23' W 071°03'2 1.7
2016-Feb-07 12:33N 42°24' W 071°01'2 1.5
2016-Feb-07 11:32N 42°23' W 071°03'0 0.1
2016-Feb-07 09:19N 42°23' W 071°03'0 0.0
2016-Feb-07 08:32N 42°23' W 071°03'0 0.0
2016-Feb-07 04:04N 42°23' W 071°03'0 0.0
2016-Feb-07 03:21N 42°23' W 071°03'0 0.0
2016-Feb-07 02:25N 42°23' W 071°03'0 0.0
2016-Feb-07 01:33N 42°23' W 071°03'1 1.4
2016-Feb-07 00:33N 42°24' W 071°01'3 2.7
2016-Feb-06 23:33N 42°21' W 071°01'2 2.0
2016-Feb-06 22:33N 42°22' W 071°03'5 4.8
2016-Feb-06 21:33N 42°20' W 070°57'8 7.6
2016-Feb-06 20:33N 42°25' W 070°49'0 0.0
2016-Feb-06 19:33N 42°25' W 070°49'0 0.0
2016-Feb-06 18:33N 42°25' W 070°49'0 0.0
2016-Feb-06 17:34N 42°25' W 070°49'0 0.0
2016-Feb-06 16:34N 42°25' W 070°49'4 3.8
2016-Feb-06 15:33N 42°23' W 070°53'7 7.2
2016-Feb-06 14:33N 42°22' W 071°03'1 0.8
2016-Feb-06 13:33N 42°23' W 071°03'3 2.7
2016-Feb-06 12:33N 42°21' W 071°01'0 0.1
2016-Feb-06 11:29N 42°21' W 071°01'1 1.1
2016-Feb-06 10:33N 42°20' W 070°60'1 1.0
2016-Feb-06 09:33N 42°21' W 071°01'3 2.5
2016-Feb-06 08:33N 42°23' W 071°03'0 0.0
2016-Feb-06 07:33N 42°23' W 071°03'1 0.9
2016-Feb-06 06:29N 42°23' W 071°04'1 0.8
2016-Feb-06 05:32N 42°23' W 071°03'0 0.2
2016-Feb-06 04:33N 42°23' W 071°03'2 1.7
2016-Feb-06 03:33N 42°24' W 071°01'1 1.1
2016-Feb-06 02:33N 42°23' W 071°02'1 1.0
2016-Feb-06 01:34N 42°22' W 071°03'0 0.2
2016-Feb-05 23:12N 42°23' W 071°03'0 0.0
2016-Feb-05 22:31N 42°23' W 071°03'0 0.0
2016-Feb-05 21:29N 42°23' W 071°03'0 0.0
2016-Feb-05 20:27N 42°23' W 071°03'0 0.0
2016-Feb-05 19:22N 42°23' W 071°03'1 0.4
2016-Feb-05 15:33N 42°24' W 071°01'0 0.1
2016-Feb-05 12:33N 42°23' W 071°01'1 0.9
2016-Feb-05 11:33N 42°23' W 071°02'0 0.1
2016-Feb-05 06:32N 42°23' W 071°02'0 0.4
2016-Feb-05 05:33N 42°23' W 071°02'2 1.7
2016-Feb-05 04:33N 42°23' W 071°04'0 0.1
2016-Feb-05 03:33N 42°23' W 071°04'1 0.9
2016-Feb-05 02:33N 42°23' W 071°03'1 1.0
2016-Feb-05 01:33N 42°23' W 071°04'1 0.2
2016-Feb-04 20:29N 42°23' W 071°03'0 0.0
2016-Feb-04 07:16N 42°23' W 071°03'1 1.0
2016-Feb-04 06:34N 42°23' W 071°03'0 0.1
2016-Feb-04 05:33N 42°23' W 071°03'1 0.4
2016-Feb-04 03:32N 42°23' W 071°03'1 0.3
2016-Feb-03 23:33N 42°23' W 071°04'1 1.3
2016-Feb-03 22:33N 42°22' W 071°03'1 0.6
2016-Feb-03 21:33N 42°23' W 071°03'0 0.0
2016-Feb-03 17:21N 42°23' W 071°03'0 0.0
2016-Feb-03 15:33N 42°23' W 071°03'0 0.0
2016-Feb-03 14:33N 42°23' W 071°03'0 0.0
2016-Feb-03 13:33N 42°23' W 071°03'0 0.0
2016-Feb-03 12:33N 42°23' W 071°03'0 0.0
2016-Feb-03 11:33N 42°23' W 071°03'1 0.8
2016-Feb-03 10:33N 42°22' W 071°03'  
Track history (hours):
 
Tides and Currents Weather Stations Pressure Air Temp Water Temp Dewpoint Dewpoint Depression Visibility Wind Speed Wind Dir Waves Ship Positions

Justice

Owner: Boston Towing & Transportation, Boston, MA. More information available from US FCC via Universal Licensing System and Coast Guard Vessel Documentation Center.

Last reported at 2016-Feb-13 10:29 UTC. Time now 2016-Feb-13 10:47 UTC.
Position N 42°23' W 071°03'.

Length 30 m; draft 5.8 m.

Type: Tug. MMSI: 367513010.

Date/timePositionNaut miles runAvg speedWind from/ knotsBaromVisibWave heightAir tempDewpointWater temp
2016-Feb-13 10:29N 42°23' W 071°03'2 2.7
2016-Feb-13 09:33N 42°21' W 071°01'0 0.5
2016-Feb-13 08:33N 42°20' W 071°00'3 3.2
2016-Feb-13 07:33N 42°24' W 071°01'2 2.1
2016-Feb-13 06:33N 42°22' W 071°03'2 1.7
2016-Feb-13 05:33N 42°21' W 071°01'1 0.7
2016-Feb-13 04:33N 42°21' W 071°02'0 0.2
2016-Feb-13 03:33N 42°21' W 071°02'2 1.8
2016-Feb-13 02:33N 42°23' W 071°03'0 0.0
2016-Feb-13 01:33N 42°23' W 071°03'0 0.0
2016-Feb-13 00:33N 42°23' W 071°03'0 0.0
2016-Feb-12 23:33N 42°23' W 071°03'0 0.0
2016-Feb-12 22:33N 42°23' W 071°03'0 0.0
2016-Feb-12 21:33N 42°23' W 071°03'0 0.4
2016-Feb-12 20:33N 42°23' W 071°03'0 0.2
2016-Feb-12 19:32N 42°23' W 071°03'1 0.5
2016-Feb-12 18:33N 42°23' W 071°03'1 1.0
2016-Feb-12 17:33N 42°23' W 071°01'2 2.2
2016-Feb-12 16:33N 42°21' W 071°02'3 2.7
2016-Feb-12 15:33N 42°20' W 070°59'5 4.6
2016-Feb-12 14:33N 42°16' W 070°56'2 1.9
2016-Feb-12 13:31N 42°14' W 070°58'6 6.1
2016-Feb-12 12:33N 42°20' W 070°57'5 4.7
2016-Feb-12 11:33N 42°22' W 071°03'1 0.8
2016-Feb-12 10:33N 42°23' W 071°03'3 2.7
2016-Feb-12 09:33N 42°21' W 071°01'1 1.3
2016-Feb-12 08:33N 42°22' W 071°02'2 1.6
2016-Feb-12 07:33N 42°23' W 071°03'0 0.3
2016-Feb-12 06:33N 42°23' W 071°03'0 0.0
2016-Feb-12 05:33N 42°23' W 071°03'0 0.0
2016-Feb-12 04:33N 42°23' W 071°03'0 0.0
2016-Feb-12 03:33N 42°23' W 071°03'0 0.0
2016-Feb-12 02:33N 42°23' W 071°03'1 0.9
2016-Feb-12 01:33N 42°23' W 071°01'1 0.9
2016-Feb-12 00:33N 42°23' W 071°03'0 0.0
2016-Feb-11 23:33N 42°23' W 071°03'0 0.0
2016-Feb-11 22:33N 42°23' W 071°03'0 0.0
2016-Feb-11 21:32N 42°23' W 071°03'1 1.2
2016-Feb-11 20:33N 42°22' W 071°02'7 7.0
2016-Feb-11 19:33N 42°17' W 070°56'3 2.6
2016-Feb-11 18:31N 42°14' W 070°58'4 3.9
2016-Feb-11 17:33N 42°18' W 070°55'3 3.4
2016-Feb-11 16:34N 42°20' W 070°58'2 2.0
2016-Feb-11 15:33N 42°19' W 070°56'5 3.6
2016-Feb-11 14:10N 42°14' W 070°58'5 8.4
2016-Feb-11 13:33N 42°19' W 070°55'4 3.8
2016-Feb-11 12:25N 42°15' W 070°59'4 4.7
2016-Feb-11 11:33N 42°19' W 070°55'7 6.6
2016-Feb-11 10:33N 42°23' W 071°02'1 0.5
2016-Feb-11 09:33N 42°23' W 071°03'0 0.2
2016-Feb-11 08:33N 42°23' W 071°03'0 0.0
2016-Feb-11 07:33N 42°23' W 071°03'2 1.6
2016-Feb-11 06:33N 42°24' W 071°01'1 0.8
2016-Feb-11 05:33N 42°23' W 071°01'1 1.5
2016-Feb-11 04:33N 42°22' W 071°03'0 0.1
2016-Feb-11 03:33N 42°22' W 071°03'1 1.4
2016-Feb-11 02:33N 42°23' W 071°04'1 1.1
2016-Feb-11 01:33N 42°23' W 071°03'0 0.0
2016-Feb-11 00:33N 42°23' W 071°03'1 0.7
2016-Feb-10 23:33N 42°22' W 071°03'1 0.6
2016-Feb-10 22:28N 42°23' W 071°03'0 0.0
2016-Feb-10 20:33N 42°23' W 071°03'6 5.8
2016-Feb-10 19:33N 42°20' W 070°56'6 1.9
2016-Feb-10 16:32N 42°14' W 070°58'5 4.6
2016-Feb-10 15:33N 42°18' W 070°56'5 4.9
2016-Feb-10 14:33N 42°21' W 071°01'6 5.6
2016-Feb-10 13:33N 42°17' W 070°56'2 2.3
2016-Feb-10 12:31N 42°15' W 070°58'5 5.1
2016-Feb-10 11:33N 42°19' W 070°56'6 5.9
2016-Feb-10 10:31N 42°23' W 071°02'1 0.8
2016-Feb-10 09:32N 42°23' W 071°01'1 1.2
2016-Feb-10 08:33N 42°23' W 071°03'0 0.0
2016-Feb-10 07:33N 42°23' W 071°03'0 0.0
2016-Feb-10 06:33N 42°23' W 071°03'1 1.0
2016-Feb-10 05:33N 42°22' W 071°03'2 1.4
2016-Feb-10 04:25N 42°21' W 071°01'2 2.9
2016-Feb-10 03:33N 42°23' W 071°03'0 0.0
2016-Feb-10 02:33N 42°23' W 071°03'0 0.0
2016-Feb-10 01:33N 42°23' W 071°03'0 0.0
2016-Feb-10 00:33N 42°23' W 071°03'0 0.0
2016-Feb-09 23:33N 42°23' W 071°03'0 0.0
2016-Feb-09 22:33N 42°23' W 071°03'0 0.0
2016-Feb-09 21:33N 42°23' W 071°03'0 0.0
2016-Feb-09 20:33N 42°23' W 071°03'1 1.1
2016-Feb-09 19:33N 42°23' W 071°04'2 2.2
2016-Feb-09 18:33N 42°21' W 071°02'3 3.3
2016-Feb-09 17:33N 42°20' W 070°58'1 1.4
2016-Feb-09 16:33N 42°20' W 070°56'6 4.1
2016-Feb-09 15:09N 42°14' W 070°58'5 8.2
2016-Feb-09 14:33N 42°19' W 070°56'7 7.2
2016-Feb-09 13:34N 42°23' W 071°04'1 0.7
2016-Feb-09 12:33N 42°23' W 071°03'1 1.3
2016-Feb-09 11:33N 42°24' W 071°01'1 1.4
2016-Feb-09 10:34N 42°23' W 071°03'0 0.0
2016-Feb-09 09:33N 42°23' W 071°03'0 0.0
2016-Feb-09 08:33N 42°23' W 071°03'0 0.0
2016-Feb-09 07:34N 42°23' W 071°03'0 0.0
2016-Feb-09 06:33N 42°23' W 071°03'0 0.0
2016-Feb-09 05:33N 42°23' W 071°03'0 0.0
2016-Feb-09 04:33N 42°23' W 071°03'0 0.0
2016-Feb-09 03:34N 42°23' W 071°03'0 0.0
2016-Feb-09 02:33N 42°23' W 071°03'0 0.0
2016-Feb-09 01:33N 42°23' W 071°03'0 0.3
2016-Feb-09 00:26N 42°23' W 071°03'0 0.0
2016-Feb-08 23:19N 42°23' W 071°03'0 0.0
2016-Feb-08 22:34N 42°23' W 071°03'0 0.3
2016-Feb-08 21:33N 42°23' W 071°03'0 0.0
2016-Feb-08 20:33N 42°23' W 071°03'0 0.0
2016-Feb-08 19:33N 42°23' W 071°03'0 0.0
2016-Feb-08 18:33N 42°23' W 071°03'0 0.0
2016-Feb-08 17:19N 42°23' W 071°03'0 0.0
2016-Feb-08 13:31N 42°23' W 071°03'0 0.0
2016-Feb-08 12:34N 42°23' W 071°03'0 0.0
2016-Feb-08 11:33N 42°23' W 071°03'0 0.0
2016-Feb-08 10:33N 42°23' W 071°03'0 0.0
2016-Feb-08 09:32N 42°23' W 071°03'1 0.9
2016-Feb-08 08:33N 42°22' W 071°03'2 1.8
2016-Feb-08 07:33N 42°21' W 071°01'2 2.3
2016-Feb-08 06:34N 42°22' W 071°03'1 1.2
2016-Feb-08 05:29N 42°23' W 071°01'2 1.9
2016-Feb-08 04:33N 42°23' W 071°04'0 0.1
2016-Feb-08 03:33N 42°23' W 071°04'0 0.1
2016-Feb-08 02:33N 42°23' W 071°03'0 0.3
2016-Feb-08 01:33N 42°23' W 071°04'1 1.0
2016-Feb-08 00:24N 42°23' W 071°03'0 0.0
2016-Feb-07 20:33N 42°23' W 071°03'0 0.0
2016-Feb-07 19:32N 42°23' W 071°03'0 0.0
2016-Feb-07 18:27N 42°23' W 071°03'2 1.8
2016-Feb-07 17:33N 42°24' W 071°01'2 1.6
2016-Feb-07 16:34N 42°23' W 071°03'0 0.0
2016-Feb-07 15:33N 42°23' W 071°03'0 0.0
2016-Feb-07 14:33N 42°23' W 071°03'0 0.0
2016-Feb-07 13:31N 42°23' W 071°03'2 1.7
2016-Feb-07 12:33N 42°24' W 071°01'2 1.5
2016-Feb-07 11:32N 42°23' W 071°03'0 0.1
2016-Feb-07 09:19N 42°23' W 071°03'0 0.0
2016-Feb-07 08:32N 42°23' W 071°03'0 0.0
2016-Feb-07 04:04N 42°23' W 071°03'0 0.0
2016-Feb-07 03:21N 42°23' W 071°03'0 0.0
2016-Feb-07 02:25N 42°23' W 071°03'0 0.0
2016-Feb-07 01:33N 42°23' W 071°03'1 1.4
2016-Feb-07 00:33N 42°24' W 071°01'3 2.7
2016-Feb-06 23:33N 42°21' W 071°01'2 2.0
2016-Feb-06 22:33N 42°22' W 071°03'5 4.8
2016-Feb-06 21:33N 42°20' W 070°57'8 7.6
2016-Feb-06 20:33N 42°25' W 070°49'0 0.0
2016-Feb-06 19:33N 42°25' W 070°49'0 0.0
2016-Feb-06 18:33N 42°25' W 070°49'0 0.0
2016-Feb-06 17:34N 42°25' W 070°49'0 0.0
2016-Feb-06 16:34N 42°25' W 070°49'4 3.8
2016-Feb-06 15:33N 42°23' W 070°53'7 7.2
2016-Feb-06 14:33N 42°22' W 071°03'1 0.8
2016-Feb-06 13:33N 42°23' W 071°03'3 2.7
2016-Feb-06 12:33N 42°21' W 071°01'0 0.1
2016-Feb-06 11:29N 42°21' W 071°01'1 1.1
2016-Feb-06 10:33N 42°20' W 070°60'1 1.0
2016-Feb-06 09:33N 42°21' W 071°01'3 2.5
2016-Feb-06 08:33N 42°23' W 071°03'0 0.0
2016-Feb-06 07:33N 42°23' W 071°03'1 0.9
2016-Feb-06 06:29N 42°23' W 071°04'1 0.8
2016-Feb-06 05:32N 42°23' W 071°03'0 0.2
2016-Feb-06 04:33N 42°23' W 071°03'2 1.7
2016-Feb-06 03:33N 42°24' W 071°01'1 1.1
2016-Feb-06 02:33N 42°23' W 071°02'1 1.0
2016-Feb-06 01:34N 42°22' W 071°03'0 0.2
2016-Feb-05 23:12N 42°23' W 071°03'0 0.0
2016-Feb-05 22:31N 42°23' W 071°03'0 0.0
2016-Feb-05 21:29N 42°23' W 071°03'0 0.0
2016-Feb-05 20:27N 42°23' W 071°03'0 0.0
2016-Feb-05 19:22N 42°23' W 071°03'1 0.4
2016-Feb-05 15:33N 42°24' W 071°01'0 0.1
2016-Feb-05 12:33N 42°23' W 071°01'1 0.9
2016-Feb-05 11:33N 42°23' W 071°02'0 0.1
2016-Feb-05 06:32N 42°23' W 071°02'0 0.4
2016-Feb-05 05:33N 42°23' W 071°02'2 1.7
2016-Feb-05 04:33N 42°23' W 071°04'0 0.1
2016-Feb-05 03:33N 42°23' W 071°04'1 0.9
2016-Feb-05 02:33N 42°23' W 071°03'1 1.0
2016-Feb-05 01:33N 42°23' W 071°04'1 0.2
2016-Feb-04 20:29N 42°23' W 071°03'0 0.0
2016-Feb-04 07:16N 42°23' W 071°03'1 1.0
2016-Feb-04 06:34N 42°23' W 071°03'0 0.1
2016-Feb-04 05:33N 42°23' W 071°03'1 0.4
2016-Feb-04 03:32N 42°23' W 071°03'1 0.3
2016-Feb-03 23:33N 42°23' W 071°04'1 1.3
2016-Feb-03 22:33N 42°22' W 071°03'1 0.6
2016-Feb-03 21:33N 42°23' W 071°03'0 0.0
2016-Feb-03 17:21N 42°23' W 071°03'0 0.0
2016-Feb-03 15:33N 42°23' W 071°03'0 0.0
2016-Feb-03 14:33N 42°23' W 071°03'0 0.0
2016-Feb-03 13:33N 42°23' W 071°03'0 0.0
2016-Feb-03 12:33N 42°23' W 071°03'0 0.0
2016-Feb-03 11:33N 42°23' W 071°03'1 0.8
2016-Feb-03 10:33N 42°22' W 071°03'  

Dump ship's entire track history